Time;durP1;ratioP1;P1;durP2;ratioP2;P2;SDS_P1;SDS_P2;PMS_P1;PMS_P2;Temp;Humidity;BMP_temperature;BMP_pressure;BME280_temperature;BME280_humidity;BME280_pressure;Samples;Min_cycle;Max_cycle;Signal;HPM_P1;HPM_P2
2022/03/14 00:01:15;;;;;;;50.28;22.37;;;;;;;2.50;36.04;101113.94;4473637;32;32102;-78
2022/03/14 00:03:58;;;;;;;44.58;20.95;;;;;;;2.49;36.20;101115.78;4485665;32;35120;-78
2022/03/14 00:06:26;;;;;;;37.00;19.12;;;;;;;2.53;35.97;101111.00;4474323;32;33499;-78
2022/03/14 00:08:55;;;;;;;44.33;18.55;;;;;;;2.51;36.17;101115.66;4472800;32;31911;-79
2022/03/14 00:11:26;;;;;;;41.95;19.95;;;;;;;2.53;39.64;101127.25;4485795;32;33903;-77
2022/03/14 00:13:56;;;;;;;48.03;20.40;;;;;;;2.53;37.75;101132.66;4485875;32;34782;-78
2022/03/14 00:16:25;;;;;;;43.70;21.25;;;;;;;2.55;37.45;101130.69;4472757;32;34549;-77
2022/03/14 00:18:55;;;;;;;43.92;19.87;;;;;;;2.45;37.04;101125.16;4485643;32;33312;-76
2022/03/14 00:21:25;;;;;;;41.25;19.80;;;;;;;2.60;36.56;101134.72;4485557;32;33751;-76
2022/03/14 00:23:57;;;;;;;44.25;19.60;;;;;;;2.34;36.72;101132.41;4485719;32;35122;-75
2022/03/14 00:26:26;;;;;;;46.75;21.17;;;;;;;2.35;36.80;101134.12;4485536;32;33879;-76
2022/03/14 00:28:54;;;;;;;43.97;20.20;;;;;;;2.25;37.03;101129.41;4472950;32;33334;-76
2022/03/14 00:31:22;;;;;;;42.53;17.85;;;;;;;2.12;36.95;101128.66;4485505;32;34675;-76
2022/03/14 00:33:51;;;;;;;35.47;17.95;;;;;;;2.04;37.32;101133.81;4472571;32;33799;-77
2022/03/14 00:36:25;;;;;;;37.38;18.42;;;;;;;2.24;36.86;101143.94;4485300;32;33894;-77
2022/03/14 00:38:54;;;;;;;39.38;17.92;;;;;;;2.28;36.74;101134.59;4472903;32;33876;-78
2022/03/14 00:41:24;;;;;;;42.72;17.92;;;;;;;2.30;36.68;101129.94;4472535;32;32087;-77
2022/03/14 00:43:52;;;;;;;36.10;17.05;;;;;;;2.26;36.87;101131.16;4486486;32;34518;-76
2022/03/14 00:46:19;;;;;;;35.67;17.37;;;;;;;2.29;36.66;101128.19;4484666;32;33873;-77
2022/03/14 00:48:50;;;;;;;34.55;17.12;;;;;;;2.24;36.65;101129.53;4485386;32;33216;-76
2022/03/14 00:51:17;;;;;;;42.33;18.12;;;;;;;2.22;36.73;101140.50;4486572;32;33657;-77
2022/03/14 00:53:45;;;;;;;37.50;17.10;;;;;;;2.37;36.46;101130.31;4485053;32;34420;-77
2022/03/14 00:56:13;;;;;;;35.00;15.80;;;;;;;2.30;36.30;101137.19;4486806;32;34898;-77
2022/03/14 00:58:41;;;;;;;37.05;18.62;;;;;;;2.23;36.37;101142.22;4485252;32;34078;-77
2022/03/14 01:01:12;;;;;;;33.78;15.52;;;;;;;2.07;36.73;101130.84;4484216;32;34404;-77
2022/03/14 01:03:39;;;;;;;33.63;15.40;;;;;;;2.04;36.81;101136.50;4471938;32;34563;-77
2022/03/14 01:06:07;;;;;;;33.50;15.45;;;;;;;2.10;36.86;101140.59;4485462;32;34878;-78
2022/03/14 01:08:37;;;;;;;31.87;15.57;;;;;;;2.12;36.61;101144.91;4485014;32;31907;-77
2022/03/14 01:11:07;;;;;;;32.38;15.15;;;;;;;2.10;36.70;101140.59;4485118;32;34569;-77
2022/03/14 01:13:35;;;;;;;33.05;15.40;;;;;;;2.11;36.64;101139.59;4486281;32;35270;-77
2022/03/14 01:16:05;;;;;;;34.72;14.60;;;;;;;2.08;36.92;101143.41;4472288;32;34801;-77
2022/03/14 01:18:33;;;;;;;30.20;14.52;;;;;;;1.97;37.05;101148.78;4485213;32;31932;-77
2022/03/14 01:21:01;;;;;;;30.15;14.85;;;;;;;1.97;36.98;101144.25;4486240;32;33949;-77
2022/03/14 01:23:35;;;;;;;25.73;13.82;;;;;;;2.02;36.76;101152.00;4486299;32;35224;-77
2022/03/14 01:26:03;;;;;;;35.40;14.98;;;;;;;2.07;36.68;101151.66;4485005;32;33805;-77
2022/03/14 01:28:33;;;;;;;30.85;14.85;;;;;;;2.04;36.73;101150.03;4486313;32;33372;-77
2022/03/14 01:31:00;;;;;;;27.70;15.30;;;;;;;2.12;36.56;101155.72;4486237;32;34373;-77
2022/03/14 01:33:28;;;;;;;28.77;14.48;;;;;;;2.09;36.73;101157.81;4485181;32;35038;-78
2022/03/14 01:35:55;;;;;;;28.58;15.15;;;;;;;1.96;36.50;101152.47;4485053;32;34760;-77
2022/03/14 01:38:23;;;;;;;27.42;15.18;;;;;;;2.08;36.26;101153.38;4485021;32;33375;-77
2022/03/14 01:40:51;;;;;;;26.90;13.45;;;;;;;1.93;36.85;101152.75;4486277;32;33672;-76
2022/03/14 01:43:20;;;;;;;31.25;15.20;;;;;;;1.90;37.12;101153.84;4486128;32;34389;-77
2022/03/14 01:45:48;;;;;;;29.52;13.77;;;;;;;1.95;37.08;101164.31;4472087;32;33463;-77
2022/03/14 01:48:16;;;;;;;28.77;13.95;;;;;;;1.92;37.55;101176.25;4472019;32;32318;-77
2022/03/14 01:50:46;;;;;;;26.98;14.32;;;;;;;1.99;37.19;101171.19;4472132;32;32324;-77
2022/03/14 01:53:18;;;;;;;27.60;13.98;;;;;;;1.87;37.26;101164.91;4486210;32;34012;-77
2022/03/14 01:55:50;;;;;;;32.75;14.87;;;;;;;1.79;37.46;101166.47;4484926;32;34542;-77
2022/03/14 01:58:17;;;;;;;28.67;14.48;;;;;;;1.77;37.40;101172.00;4484799;32;33510;-77
2022/03/14 02:00:47;;;;;;;32.33;14.90;;;;;;;1.51;37.92;101173.94;4459212;32;33121;-79
2022/03/14 02:03:21;;;;;;;29.77;14.98;;;;;;;1.62;37.61;101176.72;4471784;32;35081;-77
2022/03/14 02:05:48;;;;;;;30.55;15.18;;;;;;;1.72;37.37;101176.03;4471748;32;32426;-77
2022/03/14 02:08:16;;;;;;;35.13;16.65;;;;;;;1.75;37.23;101175.78;4484985;32;34274;-77
2022/03/14 02:10:45;;;;;;;30.20;16.02;;;;;;;1.70;37.12;101169.88;4484914;32;34049;-77
2022/03/14 02:13:15;;;;;;;61.53;29.92;;;;;;;1.68;37.55;101188.06;4485791;32;34388;-77
2022/03/14 02:15:45;;;;;;;62.90;29.55;;;;;;;1.61;37.67;101177.69;4485840;32;33775;-77
2022/03/14 02:18:12;;;;;;;55.30;25.95;;;;;;;1.48;37.99;101173.31;4484708;32;33583;-77
2022/03/14 02:20:44;;;;;;;53.45;25.40;;;;;;;1.48;38.15;101187.72;4484857;32;33643;-77
2022/03/14 02:23:15;;;;;;;117.05;53.28;;;;;;;1.46;38.01;101195.06;4471860;32;32914;-77
2022/03/14 02:25:51;;;;;;;58.87;28.20;;;;;;;1.57;37.59;101197.84;4471671;32;32280;-77
2022/03/14 02:28:25;;;;;;;32.38;16.65;;;;;;;1.45;37.79;101195.19;4472399;32;34099;-77
2022/03/14 02:30:54;;;;;;;42.03;19.55;;;;;;;1.50;37.93;101195.72;4472027;32;32247;-77
2022/03/14 02:33:23;;;;;;;50.38;23.87;;;;;;;1.60;37.83;101194.91;4471719;32;34303;-77
2022/03/14 02:35:53;;;;;;;56.20;26.67;;;;;;;1.58;37.74;101188.75;4471093;32;33775;-77
2022/03/14 02:38:21;;;;;;;67.95;32.40;;;;;;;1.50;37.80;101190.28;4458608;32;31950;-77
2022/03/14 02:40:51;;;;;;;76.97;33.72;;;;;;;1.56;37.55;101190.69;4484437;32;33874;-78
2022/03/14 02:43:24;;;;;;;77.93;36.00;;;;;;;1.51;37.84;101195.59;4484530;32;34455;-77
2022/03/14 02:45:54;;;;;;;74.25;31.37;;;;;;;1.51;37.88;101197.44;4471878;32;32485;-77
2022/03/14 02:48:25;;;;;;;50.17;24.12;;;;;;;1.55;37.99;101190.81;4483375;32;34095;-77
2022/03/14 02:51:01;;;;;;;49.60;24.33;;;;;;;1.58;37.89;101194.16;4459082;32;33330;-77
2022/03/14 02:53:29;;;;;;;67.75;29.77;;;;;;;1.30;38.30;101198.03;4485608;32;34630;-77
2022/03/14 02:56:16;;;;;;;84.62;38.10;;;;;;;1.35;37.92;101202.25;4473310;32;33149;-77
2022/03/14 02:58:44;;;;;;;71.18;31.35;;;;;;;1.28;38.16;101200.03;4485567;32;34238;-78
2022/03/14 03:01:14;;;;;;;57.97;24.37;;;;;;;1.35;38.06;101202.25;4485698;32;34546;-78
2022/03/14 03:03:45;;;;;;;41.03;19.90;;;;;;;1.34;38.13;101206.78;4499352;31;35221;-77
2022/03/14 03:06:15;;;;;;;27.20;13.70;;;;;;;1.25;38.49;101207.50;4486839;31;33820;-78
2022/03/14 03:08:43;;;;;;;27.52;13.40;;;;;;;1.24;38.77;101211.19;4487564;31;34011;-77
2022/03/14 03:11:11;;;;;;;31.42;15.15;;;;;;;1.26;38.85;101220.03;4474279;31;34509;-77
2022/03/14 03:13:43;;;;;;;36.58;18.02;;;;;;;1.36;38.41;101220.19;4474040;31;35329;-78
2022/03/14 03:16:16;;;;;;;32.28;17.27;;;;;;;1.29;38.35;101225.22;4487101;31;33641;-78
2022/03/14 03:18:47;;;;;;;42.17;19.62;;;;;;;1.40;37.85;101230.69;4474495;31;33234;-78
2022/03/14 03:21:17;;;;;;;59.77;31.27;;;;;;;1.31;38.00;101234.94;4474001;31;34545;-78
2022/03/14 03:23:45;;;;;;;61.83;30.23;;;;;;;1.24;38.18;101230.97;4485977;31;32913;-77
2022/03/14 03:26:21;;;;;;;53.05;27.17;;;;;;;1.20;38.80;101232.16;4487770;31;34737;-77
2022/03/14 03:28:49;;;;;;;42.08;20.48;;;;;;;1.23;38.49;101237.34;4486799;31;34130;-77
2022/03/14 03:31:18;;;;;;;47.30;24.63;;;;;;;1.11;38.74;101234.66;4486765;31;34378;-77
2022/03/14 03:33:47;;;;;;;46.85;25.17;;;;;;;1.25;38.70;101232.69;4486971;31;35331;-77
2022/03/14 03:36:15;;;;;;;51.67;26.48;;;;;;;1.37;38.57;101233.63;4473563;31;33926;-78
2022/03/14 03:38:43;;;;;;;60.25;29.00;;;;;;;1.13;38.78;101238.13;4473586;31;31668;-78
2022/03/14 03:41:11;;;;;;;55.15;27.17;;;;;;;1.20;38.50;101237.56;4500676;31;33769;-78
2022/03/14 03:43:39;;;;;;;58.55;28.15;;;;;;;1.21;38.57;101241.16;4473936;31;34425;-78
2022/03/14 03:46:07;;;;;;;63.30;30.83;;;;;;;1.18;38.75;101241.38;4457570;32;32478;-77
2022/03/14 03:48:34;;;;;;;43.97;21.98;;;;;;;1.15;38.73;101238.88;4480555;32;33289;-77
2022/03/14 03:51:02;;;;;;;48.30;21.73;;;;;;;0.96;38.94;101244.75;4485948;31;33097;-77
2022/03/14 03:53:31;;;;;;;41.63;22.58;;;;;;;1.01;38.94;101241.72;4486556;31;34791;-77
2022/03/14 03:55:58;;;;;;;50.70;22.98;;;;;;;0.98;39.10;101245.50;4473529;31;32994;-77
2022/03/14 03:58:28;;;;;;;44.78;21.92;;;;;;;1.07;39.00;101249.38;4486476;31;33765;-78
2022/03/14 04:00:56;;;;;;;37.90;20.23;;;;;;;0.95;39.26;101257.37;4473710;31;33514;-77
2022/03/14 04:03:24;;;;;;;38.95;16.75;;;;;;;1.05;39.12;101240.50;4473071;31;34034;-77
2022/03/14 04:05:55;;;;;;;26.92;14.80;;;;;;;1.08;39.10;101248.41;4486237;31;34933;-77
2022/03/14 04:08:22;;;;;;;30.43;15.67;;;;;;;1.05;39.14;101237.81;4473468;31;33327;-77
2022/03/14 04:10:54;;;;;;;37.63;17.12;;;;;;;0.83;39.31;101249.28;4486261;31;32689;-77
2022/03/14 04:13:25;;;;;;;34.40;18.40;;;;;;;0.89;39.31;101244.31;4486590;31;34171;-77
2022/03/14 04:15:54;;;;;;;33.90;17.15;;;;;;;0.91;39.23;101247.75;4473646;31;33831;-77
2022/03/14 04:18:25;;;;;;;35.50;18.75;;;;;;;0.91;39.21;101238.78;4486343;31;34138;-77
2022/03/14 04:20:55;;;;;;;37.05;19.92;;;;;;;0.95;39.29;101253.81;4486722;31;33621;-77
2022/03/14 04:23:23;;;;;;;47.40;22.65;;;;;;;0.75;39.42;101241.72;4486286;31;35187;-77
2022/03/14 04:25:55;;;;;;;43.00;21.27;;;;;;;0.70;39.48;101253.81;4486550;31;33931;-77
2022/03/14 04:28:23;;;;;;;39.85;20.85;;;;;;;0.84;39.31;101259.97;4472845;31;33331;-77
2022/03/14 04:30:51;;;;;;;39.70;18.95;;;;;;;0.76;39.48;101259.66;4485678;31;33154;-77
2022/03/14 04:33:18;;;;;;;32.47;16.50;;;;;;;0.87;39.28;101259.78;4485906;31;34287;-77
2022/03/14 04:35:49;;;;;;;28.12;14.77;;;;;;;0.76;39.36;101264.19;4473004;31;32399;-78
2022/03/14 04:38:17;;;;;;;30.52;15.00;;;;;;;0.76;39.46;101265.06;4475254;31;33281;-79
2022/03/14 04:40:46;;;;;;;28.67;14.05;;;;;;;0.74;39.77;101267.00;4488753;31;33711;-78
2022/03/14 04:43:14;;;;;;;28.95;14.63;;;;;;;0.80;40.24;101271.97;4488333;31;35321;-78
2022/03/14 04:45:47;;;;;;;26.27;14.87;;;;;;;0.63;39.99;101281.28;4488174;31;33839;-78
2022/03/14 04:48:16;;;;;;;34.97;17.85;;;;;;;0.86;39.47;101285.06;4475633;31;32074;-77
2022/03/14 04:50:46;;;;;;;32.73;17.17;;;;;;;0.86;39.39;101281.50;4462102;31;32994;-78
2022/03/14 04:53:13;;;;;;;33.90;17.90;;;;;;;0.85;39.30;101288.75;4487687;31;33910;-78
2022/03/14 04:55:41;;;;;;;40.50;20.67;;;;;;;0.79;39.30;101286.47;4475042;31;33445;-78
2022/03/14 04:58:12;;;;;;;35.72;18.55;;;;;;;0.72;39.47;101300.50;4475054;31;32983;-78
2022/03/14 05:00:41;;;;;;;34.53;17.85;;;;;;;0.76;39.88;101291.22;4475767;31;33397;-78
2022/03/14 05:03:10;;;;;;;31.67;18.15;;;;;;;0.74;40.11;101293.16;4475011;31;34021;-78
2022/03/14 05:05:40;;;;;;;33.47;16.97;;;;;;;0.64;40.22;101293.81;4502124;31;34782;-78
2022/03/14 05:08:07;;;;;;;31.42;16.05;;;;;;;0.60;40.14;101302.25;4488020;31;33303;-77
2022/03/14 05:10:37;;;;;;;29.23;14.13;;;;;;;0.46;40.56;101302.31;4487927;31;32223;-77
2022/03/14 05:13:05;;;;;;;26.58;14.87;;;;;;;0.44;40.80;101301.56;4474923;31;35065;-77
2022/03/14 05:15:33;;;;;;;29.60;15.07;;;;;;;0.44;40.50;101305.13;4488067;31;33952;-77
2022/03/14 05:18:02;;;;;;;31.58;16.92;;;;;;;0.31;40.63;101297.00;4488165;31;33457;-77
2022/03/14 05:20:33;;;;;;;29.90;16.75;;;;;;;0.57;40.42;101308.72;4470327;32;34449;-77
2022/03/14 05:23:05;;;;;;;35.95;16.60;;;;;;;0.50;40.63;101311.94;4456726;32;35211;-77
2022/03/14 05:25:32;;;;;;;31.27;17.45;;;;;;;0.60;40.41;101304.94;4456407;32;33833;-77
2022/03/14 05:28:00;;;;;;;31.20;15.60;;;;;;;0.54;40.50;101306.22;4456559;32;33948;-77
2022/03/14 05:30:30;;;;;;;31.65;15.05;;;;;;;0.50;41.19;101318.22;4456192;32;33565;-77
2022/03/14 05:32:58;;;;;;;32.90;15.07;;;;;;;0.39;41.43;101317.22;4456785;32;34418;-79
2022/03/14 05:35:26;;;;;;;34.60;15.77;;;;;;;0.63;40.93;101320.94;4456202;32;34093;-77
2022/03/14 05:37:54;;;;;;;33.17;15.00;;;;;;;0.62;40.43;101316.50;4456455;32;33502;-77
2022/03/14 05:40:21;;;;;;;37.78;16.98;;;;;;;0.36;40.87;101317.41;4456346;32;34459;-77
2022/03/14 05:42:49;;;;;;;36.05;18.75;;;;;;;0.59;40.28;101317.59;4443524;32;34419;-77
2022/03/14 05:45:19;;;;;;;40.72;17.60;;;;;;;0.61;40.53;101336.41;4469820;32;34048;-77
2022/03/14 05:47:47;;;;;;;42.60;21.50;;;;;;;0.71;40.51;101328.50;4455855;32;33231;-77
2022/03/14 05:50:15;;;;;;;38.43;18.13;;;;;;;0.80;40.37;101339.53;4455926;32;33881;-77
2022/03/14 05:52:43;;;;;;;45.77;20.30;;;;;;;0.81;40.76;101343.97;4456231;32;35375;-78
2022/03/14 05:55:11;;;;;;;54.33;24.83;;;;;;;1.14;40.18;101339.91;4455713;32;33053;-77
2022/03/14 05:57:38;;;;;;;55.97;29.15;;;;;;;1.41;39.72;101343.31;4456020;32;32660;-78
2022/03/14 06:00:09;;;;;;;95.75;44.47;;;;;;;1.34;40.01;101347.44;4469913;32;33634;-76
2022/03/14 06:02:45;;;;;;;44.28;22.55;;;;;;;1.44;40.01;101348.50;4447575;32;34565;-78
2022/03/14 06:05:13;;;;;;;44.75;25.10;;;;;;;1.58;39.81;101345.69;4468620;32;33872;-77
2022/03/14 06:07:44;;;;;;;75.20;38.60;;;;;;;1.81;39.55;101353.97;4468846;32;33399;-77
2022/03/14 06:10:13;;;;;;;73.53;38.67;;;;;;;1.99;39.42;101360.72;4456120;32;33273;-77
2022/03/14 06:12:42;;;;;;;68.37;34.85;;;;;;;2.10;39.56;101352.66;4468676;32;34446;-78
2022/03/14 06:15:12;;;;;;;84.85;41.37;;;;;;;2.58;49.09;101363.53;4469974;32;34612;-78
2022/03/14 06:17:45;;;;;;;86.45;41.65;;;;;;;2.79;42.15;101363.69;4468814;32;32290;-77
2022/03/14 06:20:20;;;;;;;68.05;35.05;;;;;;;2.89;39.36;101373.72;4468762;32;33716;-77
2022/03/14 06:22:51;;;;;;;33.78;18.62;;;;;;;3.07;38.18;101368.72;4468679;32;34065;-77
2022/03/14 06:25:29;;;;;;;33.97;16.55;;;;;;;3.27;36.34;101368.00;4468539;32;34755;-78
2022/03/14 06:27:59;;;;;;;29.77;14.57;;;;;;;3.56;35.06;101373.81;4468713;32;33777;-77
2022/03/14 06:30:30;;;;;;;31.60;16.27;;;;;;;3.79;34.47;101376.56;4469065;32;33671;-77
2022/03/14 06:33:00;;;;;;;30.67;17.17;;;;;;;4.06;33.93;101379.72;4468919;32;34451;-77
2022/03/14 06:35:28;;;;;;;35.17;17.95;;;;;;;4.27;33.67;101385.22;4468897;32;33814;-77
2022/03/14 06:38:00;;;;;;;28.23;15.55;;;;;;;4.57;33.60;101381.78;4468893;32;34061;-78
2022/03/14 06:40:31;;;;;;;32.60;17.87;;;;;;;4.52;31.83;101375.91;4468797;32;33554;-77
2022/03/14 06:42:59;;;;;;;33.70;18.30;;;;;;;4.56;32.79;101383.66;4468883;32;34570;-77
2022/03/14 06:45:27;;;;;;;34.05;18.40;;;;;;;4.85;32.44;101377.59;4468914;32;34557;-77
2022/03/14 06:47:56;;;;;;;33.95;17.00;;;;;;;5.00;33.71;101373.56;4469043;32;33403;-78
2022/03/14 06:50:24;;;;;;;32.75;15.63;;;;;;;5.05;32.34;101376.75;4470170;32;34399;-77
2022/03/14 06:52:58;;;;;;;32.70;16.27;;;;;;;5.72;40.90;101370.84;4443994;32;34269;-77
2022/03/14 06:55:26;;;;;;;30.55;15.93;;;;;;;6.23;35.41;101373.47;4454751;32;33679;-77
2022/03/14 06:57:54;;;;;;;29.52;14.15;;;;;;;6.33;30.45;101380.81;4469013;32;33487;-76
2022/03/14 07:00:22;;;;;;;31.77;19.08;;;;;;;6.66;37.83;101379.56;4467591;32;33315;-77
2022/03/14 07:02:51;;;;;;;39.15;21.52;;;;;;;7.36;47.01;101384.66;4468536;32;34283;-76
2022/03/14 07:05:24;;;;;;;27.00;15.80;;;;;;;8.01;31.03;101379.25;4455856;32;33542;-77
2022/03/14 07:07:53;;;;;;;28.35;15.55;;;;;;;8.41;28.13;101382.53;4468662;32;33413;-77
2022/03/14 07:10:21;;;;;;;176.35;77.90;;;;;;;8.50;27.55;101378.84;4468622;32;33562;-77
2022/03/14 07:12:50;;;;;;;118.80;54.42;;;;;;;8.41;26.18;101373.47;4468633;32;34555;-76
2022/03/14 07:15:21;;;;;;;41.03;20.50;;;;;;;8.32;26.52;101391.62;4473058;32;33883;-77
2022/03/14 07:17:50;;;;;;;121.95;66.28;;;;;;;8.59;25.92;101383.41;4484687;32;34313;-77
2022/03/14 07:20:19;;;;;;;121.82;64.05;;;;;;;9.07;26.19;101375.81;4468641;32;32488;-77
2022/03/14 07:22:54;;;;;;;46.25;27.13;;;;;;;9.14;25.38;101385.97;4471315;32;34407;-77
2022/03/14 07:25:28;;;;;;;35.00;19.83;;;;;;;9.25;25.38;101380.25;4484410;32;33751;-77
2022/03/14 07:27:59;;;;;;;67.40;40.45;;;;;;;9.53;25.20;101380.09;4484054;32;34164;-77
2022/03/14 07:30:27;;;;;;;33.33;20.65;;;;;;;9.86;25.26;101372.91;4471112;32;32235;-77
2022/03/14 07:32:58;;;;;;;28.15;16.27;;;;;;;10.10;24.43;101375.78;4470691;32;33976;-77
2022/03/14 07:35:26;;;;;;;26.58;15.80;;;;;;;10.55;23.59;101374.59;4482779;32;34951;-77
2022/03/14 07:37:59;;;;;;;22.23;12.37;;;;;;;10.73;25.09;101377.19;4482329;32;34376;-77
2022/03/14 07:40:30;;;;;;;22.98;12.85;;;;;;;11.12;22.75;101377.41;4469301;32;33352;-77
2022/03/14 07:42:59;;;;;;;18.98;10.57;;;;;;;11.32;21.44;101375.16;4482314;32;34139;-78
2022/03/14 07:45:30;;;;;;;20.55;11.73;;;;;;;11.19;20.58;101375.69;4482196;32;34432;-77
2022/03/14 07:48:13;;;;;;;32.03;19.95;;;;;;;11.34;21.48;101373.97;4482841;32;31960;-77
2022/03/14 07:50:47;;;;;;;35.60;20.48;;;;;;;11.32;20.86;101384.28;4470975;32;33641;-76
2022/03/14 07:53:21;;;;;;;27.60;15.65;;;;;;;11.74;20.26;101375.78;4483856;32;34653;-77
2022/03/14 07:55:48;;;;;;;25.50;14.48;;;;;;;11.77;20.08;101366.34;4469753;32;32844;-77
2022/03/14 07:58:16;;;;;;;20.83;12.88;;;;;;;11.96;20.83;101382.47;4483428;32;33608;-77
2022/03/14 08:00:46;;;;;;;21.15;12.00;;;;;;;12.08;20.28;101392.06;4483584;32;33465;-77
2022/03/14 08:03:23;;;;;;;16.83;10.40;;;;;;;12.11;19.62;101380.69;4483810;32;34304;-77
2022/03/14 08:05:55;;;;;;;19.80;10.35;;;;;;;12.49;19.68;101391.88;4483760;32;32787;-78
2022/03/14 08:08:25;;;;;;;21.73;10.65;;;;;;;12.37;19.61;101390.53;4466884;32;33598;-77
2022/03/14 08:10:54;;;;;;;19.50;10.07;;;;;;;12.73;19.59;101386.22;4468979;32;34059;-78
2022/03/14 08:13:27;;;;;;;17.87;10.93;;;;;;;12.67;19.91;101392.47;4457768;32;35492;-79
2022/03/14 08:15:54;;;;;;;21.05;11.38;;;;;;;12.30;19.41;101395.94;4470080;32;33970;-77
2022/03/14 08:18:23;;;;;;;16.90;10.07;;;;;;;12.72;23.93;101391.91;4471059;32;33096;-77
2022/03/14 08:20:56;;;;;;;19.10;9.70;;;;;;;13.04;19.49;101383.41;4457032;32;32237;-78
2022/03/14 08:23:24;;;;;;;22.27;10.95;;;;;;;13.43;19.39;101399.84;4471164;32;35317;-77
2022/03/14 08:25:53;;;;;;;15.70;9.35;;;;;;;13.57;18.60;101389.91;4469997;32;34384;-78
2022/03/14 08:28:21;;;;;;;16.00;10.02;;;;;;;13.74;17.95;101396.09;4469889;32;33079;-78
2022/03/14 08:30:50;;;;;;;16.05;9.02;;;;;;;14.03;20.96;101393.34;4457168;32;32224;-75
2022/03/14 08:33:20;;;;;;;17.98;10.70;;;;;;;13.86;17.84;101402.84;4469680;32;32680;-80
2022/03/14 08:35:53;;;;;;;15.73;8.75;;;;;;;14.06;27.86;101400.41;4457359;32;34618;-77
2022/03/14 08:38:21;;;;;;;15.23;9.25;;;;;;;14.55;18.10;101394.28;4470023;32;33166;-77
2022/03/14 08:40:52;;;;;;;16.00;10.10;;;;;;;14.85;17.67;101395.94;4470922;32;33864;-77
2022/03/14 08:43:23;;;;;;;18.08;11.10;;;;;;;14.62;17.39;101396.09;4443973;32;34245;-77
2022/03/14 08:45:51;;;;;;;16.37;9.73;;;;;;;14.53;17.75;101391.72;4469641;32;33225;-77
2022/03/14 08:48:22;;;;;;;17.50;9.60;;;;;;;14.76;17.06;101397.97;4480441;32;33032;-77
2022/03/14 08:50:49;;;;;;;16.42;9.93;;;;;;;14.95;17.09;101392.84;4464941;32;32239;-77
2022/03/14 08:53:19;;;;;;;17.40;9.35;;;;;;;15.00;16.88;101396.72;4444728;32;33671;-77
2022/03/14 08:55:47;;;;;;;17.55;9.98;;;;;;;14.93;17.29;101390.28;4458010;32;32401;-78
2022/03/14 08:58:17;;;;;;;15.55;8.98;;;;;;;15.31;17.07;101401.94;4457872;32;33709;-78
2022/03/14 09:00:51;;;;;;;16.17;8.45;;;;;;;15.29;16.37;101401.28;4460251;32;33716;-78
2022/03/14 09:03:21;;;;;;;14.85;8.55;;;;;;;15.53;16.36;101394.47;4472711;32;34124;-77
2022/03/14 09:05:49;;;;;;;17.00;10.15;;;;;;;15.58;16.79;101396.69;4485380;32;34919;-78
2022/03/14 09:08:20;;;;;;;15.45;8.70;;;;;;;15.70;16.85;101395.03;4470057;32;33941;-77
2022/03/14 09:10:49;;;;;;;12.05;8.25;;;;;;;15.99;16.61;101394.00;4469801;32;32203;-77
2022/03/14 09:13:26;;;;;;;13.52;8.43;;;;;;;15.73;16.14;101403.81;4484936;32;34445;-76
2022/03/14 09:16:01;;;;;;;12.23;7.20;;;;;;;15.92;20.14;101402.25;4472823;32;33906;-77
2022/03/14 09:18:31;;;;;;;11.55;6.37;;;;;;;16.18;16.11;101397.94;4472510;32;34164;-77
2022/03/14 09:20:58;;;;;;;12.35;6.43;;;;;;;15.92;15.56;101393.94;4484862;32;33734;-77
2022/03/14 09:23:32;;;;;;;12.75;7.30;;;;;;;16.16;15.86;101398.16;4484264;32;34854;-78
2022/03/14 09:26:01;;;;;;;105.57;32.45;;;;;;;16.55;16.08;101388.31;4472351;32;33825;-78
2022/03/14 09:28:29;;;;;;;13.18;7.62;;;;;;;16.37;15.39;101391.62;4486129;32;33422;-78
2022/03/14 09:30:58;;;;;;;13.48;7.32;;;;;;;15.91;15.98;101386.69;4485006;32;33839;-78
2022/03/14 09:33:29;;;;;;;11.88;7.40;;;;;;;16.15;15.79;101390.91;4459787;32;33337;-79
2022/03/14 09:35:56;;;;;;;16.45;7.53;;;;;;;16.34;15.96;101384.59;4472079;32;33882;-78
2022/03/14 09:38:24;;;;;;;37.88;21.00;;;;;;;16.68;15.95;101399.50;4486202;32;33383;-77
2022/03/14 09:40:52;;;;;;;13.40;7.68;;;;;;;16.70;15.79;101406.53;4471979;32;32409;-77
2022/03/14 09:43:20;;;;;;;13.50;7.85;;;;;;;17.17;15.32;101398.34;4485148;32;35259;-78
2022/03/14 09:45:48;;;;;;;13.35;8.02;;;;;;;16.95;15.17;101400.41;4472177;32;34068;-77
2022/03/14 09:48:16;;;;;;;12.27;6.80;;;;;;;17.18;15.35;101400.91;4484700;32;34240;-78
2022/03/14 09:50:45;;;;;;;11.57;6.60;;;;;;;17.36;15.41;101401.16;4472224;32;32388;-78
2022/03/14 09:53:17;;;;;;;16.52;7.10;;;;;;;16.87;15.15;101398.72;4485408;32;34355;-78
2022/03/14 09:55:48;;;;;;;12.13;7.53;;;;;;;16.99;15.36;101393.37;4472003;32;33446;-78
2022/03/14 09:58:18;;;;;;;14.60;6.82;;;;;;;17.23;15.14;101400.25;4472034;32;32346;-78
2022/03/14 10:00:47;;;;;;;12.60;6.93;;;;;;;17.29;14.87;101388.31;4472307;32;33687;-78
2022/03/14 10:03:24;;;;;;;20.58;12.27;;;;;;;17.24;15.13;101397.28;4472559;32;34398;-81
2022/03/14 10:05:51;;;;;;;12.45;6.90;;;;;;;16.28;15.44;101392.84;4472112;32;32400;-78
2022/03/14 10:08:19;;;;;;;16.00;8.23;;;;;;;16.71;15.01;101388.84;4472170;32;34083;-78
2022/03/14 10:10:50;;;;;;;14.02;8.27;;;;;;;17.32;15.19;101379.56;4471992;32;33223;-75
2022/03/14 10:13:38;;;;;;;10.10;6.40;;;;;;;17.35;14.43;101390.25;4485206;32;34558;-77
2022/03/14 10:16:10;;;;;;;23.80;15.48;;;;;;;17.16;14.55;101385.53;4484918;32;34600;-77
2022/03/14 10:18:58;;;;;;;12.65;7.43;;;;;;;17.11;15.11;101384.25;4472014;32;32839;-77
2022/03/14 10:21:33;;;;;;;10.90;7.12;;;;;;;17.42;14.83;101391.12;4471839;32;33090;-77
2022/03/14 10:24:04;;;;;;;16.92;9.00;;;;;;;17.36;14.72;101384.50;4484763;32;32919;-77
2022/03/14 10:26:33;;;;;;;12.43;6.85;;;;;;;17.54;14.26;101377.47;4471948;32;32392;-77
2022/03/14 10:29:13;;;;;;;13.30;8.57;;;;;;;17.85;14.34;101379.59;4472784;32;33454;-94
2022/03/14 10:31:42;;;;;;;10.95;6.00;;;;;;;17.94;14.25;101373.59;4464789;32;33037;-95
2022/03/14 10:34:18;;;;;;;13.93;6.60;;;;;;;18.00;14.09;101383.84;4463960;32;33070;-94
2022/03/14 10:36:57;;;;;;;11.10;6.60;;;;;;;18.44;14.40;101385.84;4460819;32;32330;-80
2022/03/14 10:39:28;;;;;;;9.60;5.68;;;;;;;18.75;14.90;101382.31;4486123;32;33711;-84
2022/03/14 10:42:07;;;;;;;9.57;6.43;;;;;;;18.14;14.87;101384.66;4484894;32;33897;-84
2022/03/14 10:44:51;;;;;;;10.05;6.30;;;;;;;18.13;16.01;101384.88;4473842;32;32975;-86
2022/03/14 10:47:20;;;;;;;9.50;5.28;;;;;;;18.12;14.09;101385.97;4471943;32;33928;-86
2022/03/14 10:49:48;;;;;;;12.13;5.55;;;;;;;18.56;13.42;101380.44;4472910;32;33219;-86
2022/03/14 10:52:21;;;;;;;12.32;6.22;;;;;;;19.16;13.58;101386.56;4459588;32;32494;-86
2022/03/14 10:54:51;;;;;;;9.65;6.57;;;;;;;19.54;13.41;101371.72;4471690;32;33921;-86
2022/03/14 10:57:26;;;;;;;10.98;6.00;;;;;;;19.68;12.99;101382.53;4471870;32;33888;-87
2022/03/14 10:59:56;;;;;;;9.55;5.70;;;;;;;19.94;12.68;101378.66;4457044;32;117993;-85
2022/03/14 11:02:28;;;;;;;11.23;5.90;;;;;;;20.18;12.63;101378.81;4471448;32;32301;-85
2022/03/14 11:04:58;;;;;;;9.13;5.55;;;;;;;20.51;12.86;101375.69;4458515;32;33036;-85
2022/03/14 11:07:31;;;;;;;10.25;6.05;;;;;;;20.33;12.28;101373.72;4471741;32;33705;-85
2022/03/14 11:10:02;;;;;;;9.68;5.53;;;;;;;20.15;12.54;101376.53;4471807;32;32497;-86
2022/03/14 11:12:30;;;;;;;11.63;6.00;;;;;;;20.52;12.34;101372.66;4470921;32;33818;-86
2022/03/14 11:15:04;;;;;;;10.13;5.40;;;;;;;20.06;12.48;101374.03;4467488;32;33414;-86
2022/03/14 11:17:36;;;;;;;10.63;5.53;;;;;;;20.44;12.27;101358.19;4461824;32;34222;-86
2022/03/14 11:20:24;;;;;;;10.70;5.55;;;;;;;20.11;12.59;101364.12;4467523;32;33325;-87
2022/03/14 11:22:54;;;;;;;9.80;5.72;;;;;;;19.97;12.75;101369.84;4468460;32;33123;-85
2022/03/14 11:25:24;;;;;;;11.30;5.75;;;;;;;20.01;12.75;101361.88;4452306;32;32737;-86
2022/03/14 11:27:56;;;;;;;10.00;5.47;;;;;;;20.64;12.39;101354.06;4468133;32;33811;-86
2022/03/14 11:30:25;;;;;;;9.48;5.62;;;;;;;20.72;12.56;101358.47;4471012;32;33953;-86